Terminal Aerodrome Forecast
Issued by NWS

Home | Current Version | Previous Version | Text Only | Print | Product List | Glossary On
Versions: 1 2 3 4 5 6 7 8 9 10 11 12 13 14 15 16
000
FTUS44 KBMX 231546 AAB
TAFANB
TAF AMD
KANB 231546Z 2316/2412 24010KT P6SM VCSH SCT014
     FM232000 27010G18KT P6SM BKN025
     FM240200 28006KT P6SM SCT025 BKN100
     FM240600 28002KT P6SM SKC=

USA.gov is the U.S. government's official web portal to all federal, state and local government web resources and services.